Time;durP1;ratioP1;P1;durP2;ratioP2;P2;SDS_P1;SDS_P2;PMS_P1;PMS_P2;Temp;Humidity;BMP_temperature;BMP_pressure;BME280_temperature;BME280_humidity;BME280_pressure;Samples;Min_cycle;Max_cycle;Signal;HPM_P1;HPM_P2
2022/01/17 00:00:36;;;;;;;9.77;6.60;;;;;;;2.93;87.59;98038.19;5053003;28;20181;-64
2022/01/17 00:03:02;;;;;;;9.40;6.30;;;;;;;2.83;87.57;98042.63;5052966;28;20186;-64
2022/01/17 00:05:28;;;;;;;8.87;6.13;;;;;;;2.93;88.36;98038.19;5052805;28;20270;-64
2022/01/17 00:07:53;;;;;;;8.50;6.70;;;;;;;3.07;87.09;98029.91;5044568;28;20216;-64
2022/01/17 00:10:19;;;;;;;11.27;6.50;;;;;;;2.94;87.18;98045.00;5071546;28;20252;-64
2022/01/17 00:12:46;;;;;;;7.97;5.90;;;;;;;2.99;87.32;98047.16;5072346;28;20192;-64
2022/01/17 00:15:25;;;;;;;9.30;5.93;;;;;;;2.97;88.38;98049.88;5072619;28;20541;-64
2022/01/17 00:18:07;;;;;;;6.67;5.83;;;;;;;2.92;88.21;98039.16;5045111;28;20174;-64
2022/01/17 00:20:32;;;;;;;7.27;6.10;;;;;;;3.00;88.38;98036.66;5052821;28;20378;-64
2022/01/17 00:22:58;;;;;;;8.07;6.20;;;;;;;2.84;88.18;98041.69;5052818;28;20305;-64
2022/01/17 00:25:23;;;;;;;8.10;6.07;;;;;;;2.99;88.28;98041.97;5057665;28;20205;-64
2022/01/17 00:27:48;;;;;;;9.73;6.57;;;;;;;2.93;88.91;98049.38;5056143;28;20312;-64
2022/01/17 00:30:14;;;;;;;10.37;6.67;;;;;;;2.93;87.90;98059.72;5064698;28;20189;-65
2022/01/17 00:32:39;;;;;;;9.40;6.13;;;;;;;2.84;88.36;98072.75;5052582;28;20185;-66
2022/01/17 00:35:05;;;;;;;8.10;6.57;;;;;;;2.76;88.87;98080.41;5052265;28;20186;-64
2022/01/17 00:37:30;;;;;;;9.33;6.10;;;;;;;2.70;88.33;98086.19;5067091;28;20234;-64
2022/01/17 00:39:56;;;;;;;7.87;5.73;;;;;;;2.67;89.20;98094.25;5069895;28;20232;-64
2022/01/17 00:42:21;;;;;;;7.30;5.80;;;;;;;2.86;89.35;98092.34;5034503;28;20209;-64
2022/01/17 00:44:48;;;;;;;11.40;6.37;;;;;;;2.75;88.86;98100.31;5061216;28;20288;-64
2022/01/17 00:47:13;;;;;;;7.17;6.10;;;;;;;2.74;89.54;98103.84;5065751;28;20177;-65
2022/01/17 00:49:38;;;;;;;8.87;6.53;;;;;;;2.80;88.92;98105.88;5058646;28;20197;-65
2022/01/17 00:52:04;;;;;;;9.47;5.50;;;;;;;2.61;90.85;98103.41;5058802;28;20182;-65
2022/01/17 00:54:31;;;;;;;9.67;6.13;;;;;;;2.76;90.35;98104.53;5059034;28;20201;-64
2022/01/17 00:56:57;;;;;;;7.10;5.70;;;;;;;2.90;89.73;98110.97;5069129;28;20209;-65
2022/01/17 00:59:22;;;;;;;7.87;6.10;;;;;;;2.96;89.78;98101.81;5078740;28;20235;-65
2022/01/17 01:01:47;;;;;;;8.30;6.53;;;;;;;2.93;89.01;98105.53;5070836;28;20178;-65
2022/01/17 01:04:13;;;;;;;6.87;5.53;;;;;;;3.00;88.95;98114.34;5058754;28;20674;-64
2022/01/17 01:06:38;;;;;;;10.50;7.00;;;;;;;2.88;88.45;98112.91;5066183;28;20178;-64
2022/01/17 01:09:04;;;;;;;10.27;7.23;;;;;;;2.99;88.35;98112.72;5076938;28;20230;-65
2022/01/17 01:11:30;;;;;;;10.07;7.03;;;;;;;2.74;89.13;98115.97;5077805;28;20185;-64
2022/01/17 01:13:55;;;;;;;11.67;7.40;;;;;;;2.81;89.18;98117.03;5078386;28;20269;-64
2022/01/17 01:19:05;;;;;;;13.63;8.20;;;;;;;2.51;91.54;98124.13;5058752;28;20562;-65
2022/01/17 01:21:46;;;;;;;11.33;8.57;;;;;;;2.22;93.05;98122.63;5058946;28;20531;-64
2022/01/17 01:29:59;;;;;;;14.47;9.43;;;;;;;2.15;94.50;98126.72;5015918;28;20206;-65
2022/01/17 01:32:31;;;;;;;15.27;10.17;;;;;;;2.24;94.24;98126.69;5052220;28;20238;-64
2022/01/17 01:34:59;;;;;;;16.20;10.70;;;;;;;2.22;94.79;98128.59;5060350;28;20576;-64
2022/01/17 01:37:25;;;;;;;16.33;9.97;;;;;;;2.14;95.16;98138.81;5068715;28;20212;-66
2022/01/17 01:39:52;;;;;;;18.23;10.83;;;;;;;2.33;95.10;98136.19;5078124;28;20673;-64
2022/01/17 01:42:19;;;;;;;14.57;10.10;;;;;;;2.48;94.46;98141.72;5078139;28;20216;-64
2022/01/17 01:44:48;;;;;;;14.77;10.30;;;;;;;2.41;94.35;98132.88;5077661;28;20205;-64
2022/01/17 01:47:13;;;;;;;17.97;10.60;;;;;;;2.49;93.79;98138.19;5058865;28;20178;-64
2022/01/17 01:49:39;;;;;;;13.03;9.30;;;;;;;2.48;94.26;98124.41;5058131;28;20276;-65
2022/01/17 01:52:05;;;;;;;13.80;9.80;;;;;;;2.45;93.46;98127.28;5069340;28;20219;-65
2022/01/17 01:54:30;;;;;;;13.87;9.70;;;;;;;2.45;94.08;98134.25;5078056;28;20246;-65
2022/01/17 01:56:57;;;;;;;12.70;9.67;;;;;;;2.48;93.81;98134.78;5076880;28;20268;-64
2022/01/17 01:59:24;;;;;;;12.07;9.47;;;;;;;2.25;94.83;98123.13;5074890;28;20641;-64
2022/01/17 02:01:50;;;;;;;14.23;9.37;;;;;;;2.42;95.42;98111.22;5066024;28;20209;-64
2022/01/17 02:04:16;;;;;;;12.90;9.50;;;;;;;2.24;95.91;98111.16;5037417;28;20533;-64
2022/01/17 02:06:41;;;;;;;12.40;9.00;;;;;;;2.26;95.46;98098.09;5064619;28;20173;-65
2022/01/17 02:09:07;;;;;;;11.70;9.30;;;;;;;2.31;96.31;98101.06;5074568;28;20209;-64
2022/01/17 02:11:34;;;;;;;12.97;8.90;;;;;;;2.56;94.75;98108.19;5067075;28;20692;-65
2022/01/17 02:13:59;;;;;;;13.13;9.47;;;;;;;2.63;94.37;98105.81;5065815;28;20177;-64
2022/01/17 02:16:25;;;;;;;13.57;9.63;;;;;;;2.56;93.96;98100.44;5067590;28;20197;-65
2022/01/17 02:18:51;;;;;;;16.37;9.43;;;;;;;2.37;95.08;98101.31;5054127;28;20199;-65
2022/01/17 02:23:53;;;;;;;12.57;8.73;;;;;;;2.44;94.92;98088.63;5054789;28;20525;-65
2022/01/17 02:26:21;;;;;;;12.87;9.07;;;;;;;2.44;95.11;98084.28;5060588;28;20248;-64
2022/01/17 02:28:51;;;;;;;12.67;9.07;;;;;;;2.57;94.37;98099.44;5054593;28;20261;-65
2022/01/17 02:31:18;;;;;;;11.37;8.27;;;;;;;2.51;94.63;98095.66;5069229;28;20556;-64
2022/01/17 02:33:44;;;;;;;11.40;8.40;;;;;;;2.63;93.67;98083.34;5054569;28;20182;-64
2022/01/17 02:36:10;;;;;;;11.70;8.40;;;;;;;2.46;94.74;98084.09;5062266;28;20316;-64
2022/01/17 02:38:38;;;;;;;13.07;8.83;;;;;;;2.63;94.01;98083.34;5074042;28;20302;-64
2022/01/17 02:41:04;;;;;;;11.47;7.73;;;;;;;2.69;93.48;98087.94;5057293;28;20634;-64
2022/01/17 02:43:31;;;;;;;11.33;7.73;;;;;;;2.57;94.53;98091.69;5066972;28;20213;-64
2022/01/17 02:48:24;;;;;;;12.53;8.23;;;;;;;2.69;94.59;98105.25;5073798;28;20193;-65
2022/01/17 02:50:50;;;;;;;12.47;7.87;;;;;;;2.68;95.08;98101.03;5068504;28;20182;-64
2022/01/17 02:53:16;;;;;;;11.27;7.63;;;;;;;2.94;93.90;98112.34;5054433;28;20546;-64
2022/01/17 02:55:51;;;;;;;12.10;8.90;;;;;;;2.73;94.23;98112.56;5053986;28;20209;-65
2022/01/17 02:58:19;;;;;;;11.20;8.53;;;;;;;2.69;94.31;98110.41;5054405;28;20288;-64
2022/01/17 03:00:45;;;;;;;11.77;8.47;;;;;;;2.57;96.08;98127.09;5062019;28;20663;-65
2022/01/17 03:03:18;;;;;;;13.13;8.37;;;;;;;2.71;95.67;98124.03;5055811;28;20232;-65
2022/01/17 03:05:44;;;;;;;10.90;8.50;;;;;;;2.65;95.69;98111.69;5054067;28;20188;-64
2022/01/17 03:08:10;;;;;;;11.83;8.73;;;;;;;2.59;97.08;98113.06;5054027;28;20186;-64
2022/01/17 03:10:40;;;;;;;12.27;8.57;;;;;;;2.86;96.03;98114.81;5066421;28;20703;-64
2022/01/17 03:13:13;;;;;;;11.20;9.10;;;;;;;2.89;94.30;98117.13;5073599;28;20272;-64
2022/01/17 03:15:39;;;;;;;11.27;7.83;;;;;;;2.74;95.72;98116.78;5073833;28;20208;-64
2022/01/17 03:18:06;;;;;;;11.37;8.03;;;;;;;2.86;96.25;98117.41;5073477;28;20215;-65
2022/01/17 03:20:34;;;;;;;12.63;8.90;;;;;;;2.70;96.37;98120.63;5058193;28;20240;-65
2022/01/17 03:23:00;;;;;;;10.90;8.50;;;;;;;2.81;96.38;98114.44;5071780;28;20694;-64
2022/01/17 03:25:25;;;;;;;13.97;8.73;;;;;;;2.88;95.87;98125.88;5073401;28;20201;-64
2022/01/17 03:27:51;;;;;;;11.93;9.53;;;;;;;2.98;94.79;98113.66;5073093;28;20235;-64
2022/01/17 03:30:16;;;;;;;14.30;8.50;;;;;;;2.77;94.68;98116.53;5060441;28;20269;-64
2022/01/17 03:32:41;;;;;;;12.97;9.80;;;;;;;3.04;92.83;98101.91;5053525;28;20189;-65
2022/01/17 03:35:07;;;;;;;13.33;8.83;;;;;;;2.64;96.45;98094.50;5056613;28;20249;-64
2022/01/17 03:37:33;;;;;;;14.50;9.30;;;;;;;2.63;96.89;98090.28;5054891;28;20196;-64
2022/01/17 03:39:58;;;;;;;14.13;9.63;;;;;;;2.61;96.78;98087.88;5062803;28;20233;-64
2022/01/17 03:42:24;;;;;;;13.30;9.63;;;;;;;2.70;96.47;98087.00;5052220;28;20227;-64
2022/01/17 03:44:50;;;;;;;13.23;9.40;;;;;;;2.49;97.37;98089.84;5072466;28;20201;-64
2022/01/17 03:47:16;;;;;;;13.00;8.77;;;;;;;2.69;96.73;98102.66;5072585;28;20538;-65
2022/01/17 03:49:42;;;;;;;9.93;7.83;;;;;;;2.61;96.45;98111.16;5060956;28;20212;-65
2022/01/17 03:52:07;;;;;;;10.87;7.83;;;;;;;2.65;96.69;98120.25;5041535;28;20633;-65
2022/01/17 03:54:33;;;;;;;10.20;7.33;;;;;;;2.82;96.62;98124.66;5053180;28;20189;-65
2022/01/17 03:56:59;;;;;;;11.23;8.33;;;;;;;2.70;97.38;98118.06;5053228;28;20240;-65
2022/01/17 03:59:25;;;;;;;14.13;8.87;;;;;;;2.40;99.87;98118.31;5066312;28;20277;-65
2022/01/17 04:01:51;;;;;;;12.67;8.43;;;;;;;2.41;100.00;98123.34;5061781;28;20206;-65
2022/01/17 04:04:16;;;;;;;11.27;8.60;;;;;;;2.47;100.00;98121.97;5052650;28;20233;-65
2022/01/17 04:06:42;;;;;;;8.93;7.90;;;;;;;2.53;100.00;98116.22;5035196;28;20212;-65
2022/01/17 04:09:09;;;;;;;12.87;8.63;;;;;;;2.51;100.00;98115.53;5064194;28;20626;-64
2022/01/17 04:11:34;;;;;;;10.83;8.23;;;;;;;2.44;100.00;98124.84;5063551;28;20185;-65
2022/01/17 04:14:00;;;;;;;11.37;8.73;;;;;;;2.30;100.00;98126.13;5052896;28;20205;-65
2022/01/17 04:16:25;;;;;;;10.70;8.37;;;;;;;2.35;100.00;98128.28;5052722;28;20247;-64
2022/01/17 04:18:52;;;;;;;11.23;9.10;;;;;;;2.48;100.00;98119.25;5062012;28;20200;-66
2022/01/17 04:21:18;;;;;;;13.33;9.77;;;;;;;2.41;100.00;98110.41;5066552;28;20534;-65
2022/01/17 04:23:43;;;;;;;10.77;8.67;;;;;;;2.34;100.00;98105.97;5052933;28;20209;-65
2022/01/17 04:26:08;;;;;;;11.93;8.60;;;;;;;2.41;100.00;98118.19;5052920;28;20622;-65
2022/01/17 04:28:35;;;;;;;14.97;9.33;;;;;;;2.43;100.00;98111.09;5059957;28;20209;-65
2022/01/17 04:31:00;;;;;;;12.60;9.07;;;;;;;2.52;100.00;98109.41;5057403;28;20265;-65
2022/01/17 04:33:26;;;;;;;11.73;8.10;;;;;;;2.49;100.00;98115.72;5071546;28;20272;-66
2022/01/17 04:35:51;;;;;;;10.90;8.63;;;;;;;2.64;100.00;98112.63;5071069;28;20263;-64
2022/01/17 04:38:18;;;;;;;11.13;8.33;;;;;;;2.72;100.00;98092.03;5071117;28;20217;-65
2022/01/17 04:40:46;;;;;;;10.60;8.47;;;;;;;2.64;100.00;98097.91;5052722;28;20190;-65
2022/01/17 04:43:19;;;;;;;12.50;7.63;;;;;;;2.61;100.00;98103.41;5072346;28;20657;-64
2022/01/17 04:45:47;;;;;;;11.07;8.00;;;;;;;2.74;100.00;98114.22;5071389;28;20186;-66
2022/01/17 04:48:12;;;;;;;13.37;7.63;;;;;;;2.63;100.00;98108.41;5056487;28;20177;-65
2022/01/17 04:50:38;;;;;;;10.97;7.47;;;;;;;2.60;100.00;98114.69;5054365;28;20649;-64
2022/01/17 04:53:04;;;;;;;10.57;7.90;;;;;;;2.45;100.00;98118.72;5052755;28;20178;-64
2022/01/17 04:55:29;;;;;;;9.57;7.60;;;;;;;2.55;100.00;98111.72;5066927;28;20264;-65
2022/01/17 04:57:58;;;;;;;13.17;7.37;;;;;;;2.55;100.00;98126.44;5071527;28;20184;-65
2022/01/17 05:00:26;;;;;;;14.73;8.67;;;;;;;2.64;100.00;98128.16;5071894;28;20189;-65
2022/01/17 05:02:52;;;;;;;13.20;8.80;;;;;;;2.55;100.00;98124.66;5054493;28;20247;-65
2022/01/17 05:05:17;;;;;;;10.77;7.70;;;;;;;2.72;100.00;98126.50;5051843;28;20202;-65
2022/01/17 05:07:43;;;;;;;10.93;7.90;;;;;;;2.48;100.00;98132.19;5069546;28;20223;-65
2022/01/17 05:10:11;;;;;;;9.20;8.07;;;;;;;2.57;100.00;98134.84;5070716;28;20188;-65
2022/01/17 05:12:37;;;;;;;10.10;7.77;;;;;;;2.62;100.00;98137.84;5055915;28;20666;-65
2022/01/17 05:15:05;;;;;;;13.33;8.60;;;;;;;2.56;100.00;98144.41;5070568;28;20207;-66
2022/01/17 05:19:59;;;;;;;15.07;8.40;;;;;;;2.44;100.00;98132.63;5054468;28;20178;-65
2022/01/17 05:22:31;;;;;;;10.50;7.93;;;;;;;2.59;100.00;98135.53;5057875;28;20196;-65
2022/01/17 05:24:56;;;;;;;9.90;7.20;;;;;;;2.74;100.00;98144.44;5051606;28;20194;-65
2022/01/17 05:27:21;;;;;;;10.43;7.87;;;;;;;2.64;100.00;98144.50;5051892;28;20330;-65
2022/01/17 05:29:47;;;;;;;13.17;8.73;;;;;;;2.63;100.00;98139.47;5068047;28;20268;-65
2022/01/17 05:32:13;;;;;;;14.27;8.03;;;;;;;2.78;100.00;98140.63;5063835;28;20185;-64
2022/01/17 05:34:40;;;;;;;14.53;7.67;;;;;;;2.67;100.00;98131.28;5075329;28;20195;-64
2022/01/17 05:37:06;;;;;;;12.33;8.07;;;;;;;2.65;100.00;98133.19;5075014;28;20178;-65
2022/01/17 05:39:32;;;;;;;10.07;6.70;;;;;;;2.55;100.00;98116.09;5074338;28;20233;-64
2022/01/17 05:41:58;;;;;;;9.27;7.53;;;;;;;2.64;100.00;98117.81;5064430;28;20197;-65
2022/01/17 05:44:23;;;;;;;12.23;8.43;;;;;;;2.54;100.00;98114.47;5071308;28;20574;-65
2022/01/17 05:46:49;;;;;;;12.50;6.80;;;;;;;2.71;100.00;98130.03;5061711;28;20239;-64
2022/01/17 05:49:14;;;;;;;11.27;7.70;;;;;;;2.75;100.00;98125.38;5074759;28;20559;-64
2022/01/17 05:51:40;;;;;;;8.67;6.87;;;;;;;2.65;100.00;98125.44;5060013;28;20221;-64
2022/01/17 05:54:05;;;;;;;9.57;7.00;;;;;;;2.76;100.00;98127.00;5055118;28;20237;-64
2022/01/17 05:56:31;;;;;;;11.03;7.03;;;;;;;2.63;100.00;98129.94;5054940;28;20560;-66
2022/01/17 05:58:56;;;;;;;10.50;7.37;;;;;;;2.73;100.00;98129.91;5055298;28;20185;-65
2022/01/17 06:01:21;;;;;;;9.83;7.13;;;;;;;2.71;100.00;98134.41;5049991;28;20219;-65
2022/01/17 06:03:47;;;;;;;11.70;6.90;;;;;;;2.71;100.00;98134.41;5057337;28;20220;-65
2022/01/17 06:06:12;;;;;;;9.80;7.33;;;;;;;2.80;100.00;98131.75;5074194;28;20206;-65
2022/01/17 06:08:38;;;;;;;10.20;6.73;;;;;;;2.88;100.00;98129.28;5074629;28;20209;-65
2022/01/17 06:11:03;;;;;;;14.47;8.67;;;;;;;2.80;100.00;98126.56;5060784;28;20182;-64
2022/01/17 06:13:29;;;;;;;10.00;7.00;;;;;;;2.70;100.00;98127.59;5069257;28;20606;-65
2022/01/17 06:15:54;;;;;;;11.97;7.73;;;;;;;2.78;100.00;98143.22;5074037;28;20189;-65
2022/01/17 06:18:20;;;;;;;13.00;6.70;;;;;;;2.77;100.00;98131.22;5074052;28;20185;-66
2022/01/17 06:20:45;;;;;;;10.07;6.60;;;;;;;2.86;100.00;98128.59;5072262;28;20229;-65
2022/01/17 06:23:10;;;;;;;11.30;7.13;;;;;;;3.00;100.00;98140.25;5074010;28;20264;-65
2022/01/17 06:25:36;;;;;;;12.73;7.33;;;;;;;2.96;100.00;98136.28;5058705;28;20607;-65
2022/01/17 06:28:02;;;;;;;8.63;6.77;;;;;;;2.79;100.00;98145.66;5054535;28;20348;-65
2022/01/17 06:30:28;;;;;;;11.07;7.00;;;;;;;2.94;100.00;98133.06;5069323;28;20185;-65
2022/01/17 06:32:53;;;;;;;7.77;6.47;;;;;;;2.81;100.00;98137.75;5071088;28;20213;-65
2022/01/17 06:35:19;;;;;;;7.57;6.33;;;;;;;2.85;100.00;98146.84;5054214;28;20182;-65
2022/01/17 06:37:45;;;;;;;10.83;7.90;;;;;;;2.93;100.00;98146.94;5054033;28;20503;-66
2022/01/17 06:40:12;;;;;;;13.93;8.20;;;;;;;2.86;100.00;98153.66;5061344;28;20182;-65
2022/01/17 06:42:37;;;;;;;10.43;6.57;;;;;;;3.13;100.00;98163.19;5054229;28;20225;-65
2022/01/17 06:45:05;;;;;;;9.30;6.27;;;;;;;2.90;100.00;98167.94;5053518;28;20248;-64
2022/01/17 06:47:35;;;;;;;11.00;6.80;;;;;;;3.07;100.00;98184.47;5060436;28;20185;-65
2022/01/17 06:50:04;;;;;;;9.83;6.20;;;;;;;3.14;100.00;98198.50;5062360;28;20288;-64
2022/01/17 06:52:30;;;;;;;14.10;7.80;;;;;;;2.84;100.00;98197.03;5054202;28;20178;-65
2022/01/17 06:54:55;;;;;;;8.60;6.13;;;;;;;2.76;100.00;98189.13;5054022;28;20186;-64
2022/01/17 06:57:23;;;;;;;7.30;6.43;;;;;;;2.88;100.00;98183.63;5054226;28;20193;-64
2022/01/17 06:59:48;;;;;;;8.30;6.53;;;;;;;2.94;100.00;98182.25;5062604;28;20185;-65
2022/01/17 07:02:14;;;;;;;9.10;6.83;;;;;;;2.94;100.00;98184.84;5073617;28;20284;-64
2022/01/17 07:04:39;;;;;;;8.13;6.17;;;;;;;2.93;100.00;98176.25;5073596;28;20197;-64
2022/01/17 07:07:05;;;;;;;9.60;6.30;;;;;;;2.91;100.00;98178.16;5065253;28;20185;-64
2022/01/17 07:09:30;;;;;;;7.57;5.90;;;;;;;3.00;100.00;98176.50;5059452;28;20186;-64
2022/01/17 07:11:59;;;;;;;9.20;5.97;;;;;;;2.92;100.00;98202.28;5071731;28;20189;-64
2022/01/17 07:14:25;;;;;;;7.67;6.20;;;;;;;3.05;100.00;98226.09;5054661;28;20606;-65
2022/01/17 07:16:51;;;;;;;7.73;6.27;;;;;;;3.06;100.00;98230.31;5062590;28;20192;-65
2022/01/17 07:19:16;;;;;;;10.07;6.53;;;;;;;3.17;100.00;98239.66;5058255;28;20264;-64
2022/01/17 07:21:42;;;;;;;7.23;6.00;;;;;;;3.17;100.00;98242.25;5072692;28;20190;-65
2022/01/17 07:24:07;;;;;;;6.87;5.60;;;;;;;3.18;100.00;98244.69;5072119;28;20707;-65
2022/01/17 07:26:32;;;;;;;8.43;6.23;;;;;;;3.18;100.00;98251.63;5065949;28;20190;-64
2022/01/17 07:28:58;;;;;;;6.73;5.30;;;;;;;3.18;100.00;98262.81;5054453;28;20205;-65
2022/01/17 07:31:23;;;;;;;6.23;4.97;;;;;;;3.23;100.00;98250.25;5072901;28;20650;-65
2022/01/17 07:33:49;;;;;;;6.27;4.60;;;;;;;3.28;100.00;98244.66;5055728;28;20472;-65
2022/01/17 07:36:19;;;;;;;5.50;4.77;;;;;;;3.35;100.00;98223.19;5053208;28;20186;-65
2022/01/17 07:38:45;;;;;;;5.13;4.43;;;;;;;3.31;100.00;98226.22;5066931;28;20217;-69
2022/01/17 07:41:11;;;;;;;6.97;5.00;;;;;;;3.38;100.00;98221.25;5052852;28;20290;-68
2022/01/17 07:43:37;;;;;;;8.57;5.43;;;;;;;3.32;100.00;98205.34;5052898;28;20189;-65
2022/01/17 07:46:06;;;;;;;6.73;4.63;;;;;;;3.38;100.00;98216.91;5053108;28;20273;-66
2022/01/17 07:48:56;;;;;;;5.20;4.53;;;;;;;3.40;100.00;98219.34;5049438;28;20192;-66
2022/01/17 07:51:21;;;;;;;5.43;4.90;;;;;;;3.25;100.00;98234.56;5052990;28;20186;-66
2022/01/17 07:53:47;;;;;;;5.70;4.80;;;;;;;3.24;100.00;98236.31;5035216;28;20177;-66
2022/01/17 07:56:12;;;;;;;6.50;4.73;;;;;;;3.46;100.00;98229.94;5063297;28;20375;-66
2022/01/17 07:58:38;;;;;;;6.60;5.13;;;;;;;3.56;100.00;98232.47;5068120;28;20628;-66
2022/01/17 08:01:04;;;;;;;6.03;5.10;;;;;;;3.54;100.00;98232.63;5053700;28;20186;-66
2022/01/17 08:03:30;;;;;;;6.43;4.77;;;;;;;3.45;100.00;98243.06;5053339;28;20584;-66
2022/01/17 08:05:55;;;;;;;6.13;4.93;;;;;;;3.48;100.00;98240.97;5050326;28;20194;-66
2022/01/17 08:08:21;;;;;;;6.43;4.33;;;;;;;3.51;100.00;98237.28;5068436;28;20188;-66
2022/01/17 08:10:46;;;;;;;6.70;4.50;;;;;;;3.52;100.00;98236.31;5063287;28;20193;-66
2022/01/17 08:13:12;;;;;;;7.30;4.70;;;;;;;3.44;100.00;98247.41;5051906;28;20181;-66
2022/01/17 08:15:38;;;;;;;5.27;4.37;;;;;;;3.56;99.97;98261.00;5052089;28;20753;-66
2022/01/17 08:18:04;;;;;;;6.53;4.67;;;;;;;3.59;99.63;98260.69;5066406;28;20181;-66
2022/01/17 08:20:30;;;;;;;7.13;4.67;;;;;;;3.53;100.00;98251.72;5056632;28;20186;-65
2022/01/17 08:22:59;;;;;;;5.23;4.27;;;;;;;3.59;99.74;98245.94;5050327;28;20181;-65
2022/01/17 08:25:25;;;;;;;4.53;4.13;;;;;;;3.67;99.09;98255.59;5070334;28;20204;-65
2022/01/17 08:27:50;;;;;;;4.63;4.17;;;;;;;3.71;99.04;98254.34;5062274;28;20182;-65
2022/01/17 08:30:16;;;;;;;5.73;4.20;;;;;;;3.64;97.64;98261.06;5035327;28;20192;-65
2022/01/17 08:32:42;;;;;;;4.73;4.23;;;;;;;3.71;97.29;98251.75;5067032;28;20232;-67
2022/01/17 08:35:08;;;;;;;5.03;4.47;;;;;;;3.71;97.94;98238.78;5064906;28;20204;-65
2022/01/17 08:37:34;;;;;;;6.10;4.40;;;;;;;3.73;97.25;98242.03;5062832;28;20600;-66
2022/01/17 08:40:00;;;;;;;4.83;3.90;;;;;;;3.82;97.75;98237.75;5053557;28;20638;-65
2022/01/17 08:42:27;;;;;;;4.30;3.80;;;;;;;3.87;97.14;98238.94;5038658;28;20177;-65
2022/01/17 08:44:55;;;;;;;7.03;4.50;;;;;;;3.94;96.26;98228.78;5071740;28;20287;-65
2022/01/17 08:47:21;;;;;;;4.47;3.93;;;;;;;3.91;96.88;98221.28;5053620;28;20177;-65
2022/01/17 08:49:48;;;;;;;5.47;4.17;;;;;;;4.06;95.31;98219.81;5053849;28;20184;-65
2022/01/17 08:52:15;;;;;;;6.17;3.93;;;;;;;3.84;96.29;98221.09;5054122;28;20180;-66
2022/01/17 08:54:41;;;;;;;6.10;4.43;;;;;;;3.88;96.33;98239.75;5066788;28;20178;-66
2022/01/17 08:57:07;;;;;;;5.83;4.50;;;;;;;3.92;95.32;98236.69;5052718;28;20177;-65
2022/01/17 08:59:32;;;;;;;4.33;3.93;;;;;;;3.85;96.11;98243.44;5071887;28;20212;-65
2022/01/17 09:01:58;;;;;;;3.93;3.43;;;;;;;3.92;96.14;98261.81;5042851;28;20186;-65
2022/01/17 09:04:24;;;;;;;4.57;4.07;;;;;;;4.12;94.93;98268.50;5052355;28;20205;-65
2022/01/17 09:06:49;;;;;;;4.47;3.80;;;;;;;3.95;94.87;98283.09;5053076;28;20659;-65
2022/01/17 09:09:16;;;;;;;4.83;4.30;;;;;;;4.08;94.91;98278.34;5037864;28;20251;-65
2022/01/17 09:11:43;;;;;;;4.93;4.43;;;;;;;4.14;93.65;98282.13;5037968;28;20530;-65
2022/01/17 09:14:09;;;;;;;5.57;4.23;;;;;;;4.24;94.36;98284.63;5048269;28;20264;-66
2022/01/17 09:16:36;;;;;;;4.17;3.77;;;;;;;4.51;93.71;98280.13;5076242;28;20688;-65
2022/01/17 09:19:02;;;;;;;4.43;4.00;;;;;;;4.73;92.21;98271.06;5075833;28;20179;-66
2022/01/17 09:21:28;;;;;;;5.43;4.03;;;;;;;4.76;91.78;98262.13;5075477;28;20185;-65
2022/01/17 09:23:57;;;;;;;6.17;3.90;;;;;;;4.93;90.67;98245.66;5057335;28;20219;-65
2022/01/17 09:26:25;;;;;;;5.67;3.53;;;;;;;4.70;91.29;98250.56;5070147;28;20190;-65
2022/01/17 09:28:54;;;;;;;4.20;3.77;;;;;;;4.81;91.31;98258.09;5063664;28;20247;-65
2022/01/17 09:31:20;;;;;;;4.40;4.00;;;;;;;4.75;90.78;98278.69;5055102;28;20189;-65
2022/01/17 09:33:46;;;;;;;5.70;3.97;;;;;;;4.90;90.40;98279.75;5056072;28;20186;-65
2022/01/17 09:36:12;;;;;;;4.33;3.93;;;;;;;4.92;90.37;98304.59;5046754;28;20572;-65
2022/01/17 09:38:37;;;;;;;4.97;3.67;;;;;;;4.85;90.33;98318.34;5068402;28;20225;-65
2022/01/17 09:41:04;;;;;;;4.20;3.80;;;;;;;4.92;89.32;98328.00;5061980;28;20190;-65
2022/01/17 09:43:30;;;;;;;4.30;3.47;;;;;;;4.92;89.30;98324.56;5074771;28;20185;-66
2022/01/17 09:45:56;;;;;;;4.17;3.17;;;;;;;4.75;89.33;98341.00;5074663;28;20648;-65
2022/01/17 09:48:24;;;;;;;3.57;3.27;;;;;;;4.80;90.10;98328.38;5072158;28;20184;-65
2022/01/17 09:51:02;;;;;;;4.13;3.73;;;;;;;5.07;89.99;98311.84;5056662;28;20248;-64
2022/01/17 09:53:28;;;;;;;3.93;3.57;;;;;;;5.17;88.99;98323.75;5073306;28;20648;-65
2022/01/17 09:56:02;;;;;;;3.80;3.50;;;;;;;5.34;88.48;98311.66;5072131;28;20193;-66
2022/01/17 09:58:29;;;;;;;4.03;3.63;;;;;;;5.46;87.06;98322.59;5048174;28;20174;-65
2022/01/17 10:00:54;;;;;;;4.10;3.70;;;;;;;5.25;87.82;98334.19;5066085;28;20182;-65
2022/01/17 10:03:21;;;;;;;4.83;3.73;;;;;;;5.28;87.94;98325.28;5056117;28;20189;-65
2022/01/17 10:05:47;;;;;;;4.83;3.70;;;;;;;5.03;87.83;98335.53;5057661;28;20190;-66
2022/01/17 10:08:16;;;;;;;5.23;3.80;;;;;;;5.14;88.66;98336.22;5054582;28;20530;-65
2022/01/17 10:11:01;;;;;;;4.97;4.13;;;;;;;5.29;87.98;98327.72;5057028;28;20253;-65
2022/01/17 10:13:31;;;;;;;5.23;3.70;;;;;;;5.41;87.68;98326.47;5054618;28;20178;-65
2022/01/17 10:16:05;;;;;;;4.53;3.67;;;;;;;5.54;86.55;98330.41;5055393;28;20189;-65
2022/01/17 10:18:32;;;;;;;4.30;3.57;;;;;;;5.53;86.62;98319.19;5065182;28;20220;-65
2022/01/17 10:21:20;;;;;;;4.20;3.77;;;;;;;5.63;86.93;98308.69;5056303;28;20174;-66
2022/01/17 10:27:01;;;;;;;4.63;3.87;;;;;;;5.69;85.58;98305.44;5036461;28;20217;-65
2022/01/17 10:35:32;;;;;;;3.63;3.30;;;;;;;5.82;85.13;98309.22;5065754;28;20216;-65
2022/01/17 10:38:09;;;;;;;2.90;2.70;;;;;;;5.94;83.81;98304.56;5059968;28;20178;-65
2022/01/17 10:40:37;;;;;;;3.13;2.90;;;;;;;5.85;84.02;98314.09;5060815;28;20181;-65
2022/01/17 10:43:05;;;;;;;3.43;2.67;;;;;;;5.77;84.50;98318.47;5055379;28;20219;-65
2022/01/17 10:45:37;;;;;;;2.67;2.47;;;;;;;5.65;83.83;98325.75;5055500;28;20700;-65
2022/01/17 10:48:04;;;;;;;2.30;2.10;;;;;;;5.46;84.37;98326.00;5064801;28;20181;-65
2022/01/17 10:50:37;;;;;;;3.00;2.20;;;;;;;5.53;84.87;98328.78;5045211;28;20634;-65
2022/01/17 10:53:06;;;;;;;2.60;2.40;;;;;;;5.30;84.97;98334.53;5058748;28;20178;-65
2022/01/17 10:55:53;;;;;;;3.80;2.40;;;;;;;5.46;84.33;98328.63;5061064;28;20225;-65
2022/01/17 10:58:25;;;;;;;2.60;2.40;;;;;;;5.56;84.56;98344.09;5058067;28;20221;-66
2022/01/17 11:00:56;;;;;;;2.40;2.20;;;;;;;5.50;84.64;98358.53;5070397;28;20642;-65
2022/01/17 11:03:25;;;;;;;2.43;2.23;;;;;;;5.32;84.60;98356.00;5070507;28;20182;-65
2022/01/17 11:05:53;;;;;;;2.50;2.30;;;;;;;5.39;85.00;98351.81;5063813;28;20279;-65
2022/01/17 11:08:21;;;;;;;2.40;2.20;;;;;;;5.26;85.35;98358.41;5064387;28;20194;-64
2022/01/17 11:10:50;;;;;;;2.47;2.27;;;;;;;5.18;85.92;98359.19;5034627;28;20189;-65
2022/01/17 11:13:18;;;;;;;2.27;2.17;;;;;;;5.23;85.14;98343.13;5060106;28;20181;-65
2022/01/17 11:15:52;;;;;;;1.90;1.80;;;;;;;5.11;85.61;98344.34;5056778;28;20189;-66
2022/01/17 11:18:22;;;;;;;2.37;2.03;;;;;;;5.11;85.25;98349.53;5066397;28;20178;-63
2022/01/17 11:20:54;;;;;;;2.30;2.10;;;;;;;5.18;85.17;98356.59;5063380;28;20231;-65
2022/01/17 11:23:23;;;;;;;3.67;3.07;;;;;;;5.51;84.27;98359.34;5058759;28;20575;-65
2022/01/17 11:25:53;;;;;;;3.93;2.70;;;;;;;5.50;85.00;98355.94;5053110;28;20205;-65
2022/01/17 11:28:23;;;;;;;3.03;2.80;;;;;;;5.58;85.01;98357.72;5053424;28;20170;-66
2022/01/17 11:30:53;;;;;;;3.20;2.70;;;;;;;5.53;85.74;98347.81;5058302;28;20248;-65
2022/01/17 11:33:19;;;;;;;3.20;2.23;;;;;;;5.36;83.85;98346.91;5042461;28;20188;-65
2022/01/17 11:35:51;;;;;;;2.50;2.30;;;;;;;5.53;83.36;98346.97;5070466;28;20643;-65
2022/01/17 11:38:20;;;;;;;2.97;2.70;;;;;;;5.46;84.20;98339.00;5071930;28;20236;-65
2022/01/17 11:40:46;;;;;;;1.70;1.60;;;;;;;5.25;84.56;98339.38;5071211;28;20610;-65
2022/01/17 11:43:34;;;;;;;2.40;2.20;;;;;;;5.09;85.23;98347.09;5058572;28;20189;-64
2022/01/17 11:46:18;;;;;;;2.03;1.90;;;;;;;5.11;86.37;98347.75;5065937;28;20284;-66
2022/01/17 11:49:11;;;;;;;3.90;3.50;;;;;;;4.54;90.44;98347.34;5050613;28;20272;-64
2022/01/17 11:51:40;;;;;;;4.63;4.17;;;;;;;4.29;94.04;98336.94;5058285;28;20194;-65
2022/01/17 11:54:13;;;;;;;4.73;4.30;;;;;;;4.18;96.92;98319.78;5064956;28;20547;-65
2022/01/17 11:56:46;;;;;;;5.33;4.40;;;;;;;4.33;99.47;98299.31;5059246;28;20185;-65
2022/01/17 11:59:25;;;;;;;5.33;4.60;;;;;;;4.37;100.00;98277.28;5056080;28;20177;-65